首页
METAR-TAF:

METAR-TAF

机场 :

努瓦克肖特国际机场

努瓦克肖特, 毛里塔尼亚

纬度: 18-18-36N, 经度: 015-58-11W, 海拔: 3米

当前天气观测

该预报发布于36分钟前的14:00 UTC
风速10节,风向东转东南,在东转东北东南之间变化
温度 37°C
湿度 24%
气压 1011 hPa
能見度: 1300
高吹尘

METAR: GQNO 231400Z 11010KT 070V130 1300 R34/1500N R06/1500N BLDU NSC 37/13 Q1011 BECMG 2000 BLDU

时间: 14:36 (14:36 UTC)

预报

该预报发布于3小时和36分钟前的11:00 UTC
预报有效从23日的 12点(UTC)到 24日的 18点(UTC)
风速15节,风向
能見度: 1200
高吹沙
几率 40% :
短暂存在
从 23日的 12点(UTC)到 23日的 16点(UTC)
能見度: 0400
沙暴
从 23日的 1800点(UTC)
风速12节,风向
能見度: 4500
高吹尘
短暂存在
从 24日的 09点(UTC)到 24日的 15点(UTC)
风速12节,风向东转东北

TAF: GQNO 231100Z 2312/2418 09015KT 1200 BLSA NSC PROB40 TEMPO 2312/2316 0400 SS FM231800 01012KT 4500 BLDU NSC TEMPO 2409/2415 06012KT

超过4000个机场的气象观测和天气预报(METAR&TAF报告)。

可查询的气象台以黄色和红色小点在地图上表示。

将鼠标移到小点上方,可查看气象台名称。

然后点击查看天气观测和预报。

如需切换地图:点击带黑十字的绿色按钮放大地图;点击带横线的绿色按钮缩小地图;或者点击绿色箭头查看邻近地区的地图。


METAR-TAF: